Data for 03/24/2006

Time Sea-Level Adjusted Pressure Absolute Pressure Temperature Relative Humidity Dew Point   
(mb) (inHg) (mb) (inHg) (C) (F) (%) (C) (F)
00:05 1023 30.21 852 25.16 2.8 37.1 50 -6.7 20
00:10 1023 30.21 852 25.16 2.9 37.2 49 -6.7 20
00:15 1023 30.21 852 25.16 2.9 37.3 49 -6.7 20
00:20 1023 30.21 852 25.16 3 37.4 49 -6.7 20
00:25 1022 30.18 852 25.16 2.8 37.1 50 -6.6 20.1
00:30 1022 30.18 852 25.16 2.8 37 50 -6.6 20
00:35 1022 30.18 852 25.16 2.6 36.6 51 -6.5 20.3
00:40 1022 30.18 852 25.16 2.5 36.5 51 -6.6 20
00:45 1022 30.18 852 25.16 2.5 36.5 52 -6.5 20.3
00:50 1022 30.18 851 25.13 2.2 35.9 52 -6.6 20.1
00:55 1022 30.18 851 25.13 2 35.6 53 -6.6 20.1
01:00 1022 30.18 851 25.13 1.9 35.5 52 -6.8 19.8
01:05 1022 30.18 851 25.13 1.9 35.4 52 -6.9 19.5
01:10 1022 30.18 851 25.13 1.8 35.3 53 -6.8 19.7
01:15 1022 30.18 851 25.13 1.6 34.9 53 -6.9 19.6
01:20 1022 30.18 851 25.13 1.6 35 52 -7.1 19.2
01:25 1022 30.18 851 25.13 1.7 35 53 -7 19.5
01:30 1022 30.18 851 25.13 1.5 34.7 54 -6.8 19.7
01:35 1022 30.18 851 25.13 1.4 34.6 54 -6.9 19.5
01:40 1022 30.18 851 25.13 1.5 34.7 54 -6.8 19.7
01:45 1022 30.18 851 25.13 1.6 34.8 53 -7 19.4
01:50 1022 30.18 851 25.13 1.7 35.1 51 -7.3 18.8
01:55 1022 30.18 851 25.13 1.9 35.4 51 -7.1 19.3
02:00 1022 30.18 851 25.13 1.7 35.1 52 -7.1 19.2
02:05 1022 30.18 851 25.13 1.6 34.9 53 -7 19.4
02:10 1022 30.18 851 25.13 1.5 34.8 52 -7.2 19
02:15 1022 30.18 851 25.13 1.5 34.8 52 -7.3 18.8
02:20 1021 30.15 851 25.13 1.5 34.7 52 -7.3 18.9
02:25 1021 30.15 851 25.13 2 35.7 48 -7.9 17.8
02:30 1021 30.15 851 25.13 2.6 36.7 46 -7.8 18
02:35 1021 30.15 850 25.1 2.5 36.5 48 -7.5 18.5
02:40 1021 30.15 850 25.1 2.5 36.4 46 -8 17.6
02:45 1021 30.15 850 25.1 2.7 36.8 46 -8 17.6
02:50 1021 30.15 850 25.1 2.5 36.6 46 -7.9 17.8
02:55 1021 30.15 850 25.1 2.3 36.2 48 -7.5 18.5
03:00 1021 30.15 850 25.1 2.1 35.7 48 -7.7 18.1
03:05 1021 30.15 850 25.1 2.2 35.9 47 -8.1 17.4
03:10 1021 30.15 850 25.1 2.5 36.4 45 -8.3 17
03:15 1021 30.15 850 25.1 2.7 36.9 44 -8.2 17.2
03:20 1021 30.15 850 25.1 2.8 37 44 -8.3 17
03:25 1021 30.15 850 25.1 2.8 37 44 -8.2 17.2
03:30 1021 30.15 850 25.1 2.8 37 44 -8.2 17.3
03:35 1021 30.15 850 25.1 2.7 36.9 44 -8.2 17.2
03:40 1021 30.15 850 25.1 2.8 37 43 -8.5 16.7
03:45 1021 30.15 850 25.1 2.8 37.1 43 -8.5 16.7
03:50 1021 30.15 850 25.1 2.9 37.3 43 -8.5 16.7
03:55 1021 30.15 850 25.1 2.9 37.3 44 -8.2 17.2
04:00 1021 30.15 850 25.1 2.4 36.3 46 -8.1 17.5
04:05 1021 30.15 850 25.1 2.3 36.1 45 -8.6 16.6
04:10 1021 30.15 850 25.1 2.5 36.5 44 -8.4 16.8
04:15 1021 30.15 850 25.1 2.5 36.6 45 -8.4 16.9
04:20 1021 30.15 850 25.1 2.5 36.6 44 -8.4 16.8
04:25 1021 30.15 850 25.1 2.6 36.6 44 -8.4 16.9
04:30 1021 30.15 850 25.1 2.3 36.1 46 -8.2 17.3
04:35 1021 30.15 850 25.1 2.2 35.9 46 -8.3 17.1
04:40 1021 30.15 850 25.1 1.9 35.4 48 -8.1 17.4
04:45 1020 30.12 850 25.1 1.7 35 48 -8.3 17.1
04:50 1020 30.12 850 25.1 1.6 34.8 48 -8.3 17.1
04:55 1020 30.12 849 25.07 1.3 34.4 50 -8 17.6
05:00 1020 30.12 849 25.07 1 33.9 51 -8 17.5
05:05 1020 30.12 849 25.07 0.9 33.6 52 -8 17.7
05:10 1020 30.12 849 25.07 1 33.8 50 -8.2 17.3
05:15 1020 30.12 849 25.07 1.3 34.4 48 -8.4 16.9
05:20 1020 30.12 849 25.07 1.3 34.3 49 -8.2 17.2
05:25 1020 30.12 849 25.07 1.2 34.2 49 -8.4 16.9
05:30 1020 30.12 849 25.07 1.2 34.1 50 -8.2 17.3
05:35 1020 30.12 849 25.07 1.2 34.1 52 -7.7 18.1
05:40 1020 30.12 849 25.07 0.9 33.6 51 -8 17.6
05:45 1020 30.12 849 25.07 1.2 34.2 50 -8.1 17.4
05:50 1020 30.12 849 25.07 0.7 33.3 54 -7.6 18.4
05:55 1020 30.12 849 25.07 0.5 33 51 -8.4 16.8
06:00 1020 30.12 849 25.07 1.2 34.1 50 -8.2 17.3
06:05 1020 30.12 849 25.07 1.2 34.1 49 -8.3 17.1
06:10 1020 30.12 849 25.07 1.3 34.3 49 -8.3 17.1
06:15 1020 30.12 849 25.07 1.2 34.1 49 -8.4 16.9
06:20 1020 30.12 849 25.07 1.2 34.1 49 -8.4 16.9
06:25 1020 30.12 849 25.07 1.6 34.8 46 -8.8 16.2
06:30 1020 30.12 849 25.07 1.6 35 46 -8.7 16.4
06:35 1020 30.12 849 25.07 1.6 34.8 47 -8.6 16.5
06:40 1020 30.12 849 25.07 1.6 34.9 47 -8.4 16.8
06:45 1020 30.12 849 25.07 1.6 34.9 46 -8.7 16.3
06:50 1020 30.12 849 25.07 1.8 35.2 47 -8.4 16.9
06:55 1020 30.12 849 25.07 1.2 34.2 51 -7.8 17.9
07:00 1020 30.12 849 25.07 0.5 33 54 -7.8 18
07:05 1020 30.12 849 25.07 0.5 33 51 -8.4 17
07:10 1020 30.12 849 25.07 1.5 34.6 48 -8.5 16.7
07:15 1020 30.12 849 25.07 1.9 35.4 45 -8.9 16
07:20 1020 30.12 849 25.07 2.1 35.9 46 -8.3 17
07:25 1020 30.12 849 25.07 1.6 34.8 51 -7.6 18.3
07:30 1020 30.12 849 25.07 1.3 34.4 49 -8.4 16.9
07:35 1020 30.12 849 25.07 1.7 35 49 -8 17.7
07:40 1020 30.12 849 25.07 1.7 35.1 49 -8 17.6
07:45 1020 30.12 849 25.07 2.2 36 44 -8.7 16.3
07:50 1020 30.12 849 25.07 2.6 36.7 45 -8.3 17.1
07:55 1020 30.12 849 25.07 3 37.3 42 -8.7 16.4
08:00 1019 30.09 849 25.07 3.1 37.6 44 -7.9 17.7
08:05 1019 30.09 849 25.07 2.6 36.6 49 -7 19.5
08:10 1019 30.09 849 25.07 2 35.6 51 -7.2 19.1
08:15 1019 30.09 849 25.07 2.1 35.9 48 -7.7 18.1
08:20 1019 30.09 849 25.07 2.6 36.7 46 -7.9 17.8
08:25 1019 30.09 849 25.07 3 37.5 45 -7.7 18.1
08:30 1019 30.09 848 25.04 4 39.2 42 -7.8 18
08:35 1019 30.09 848 25.04 4.4 40 41 -7.6 18.3
08:40 1019 30.09 848 25.04 4.7 40.5 41 -7.4 18.6
08:45 1019 30.09 848 25.04 4.3 39.8 41 -7.8 18
08:50 1019 30.09 848 25.04 4.1 39.5 42 -7.5 18.5
08:55 1019 30.09 848 25.04 4.3 39.8 40 -8 17.6
09:00 1019 30.09 848 25.04 4.9 40.8 38 -8.2 17.2
09:05 1019 30.09 848 25.04 5.3 41.5 37 -8.1 17.4
09:10 1019 30.09 848 25.04 5.2 41.4 36 -8.6 16.6
09:15 1019 30.09 848 25.04 5.7 42.3 35 -8.7 16.3
09:20 1019 30.09 848 25.04 6.3 43.3 33 -8.8 16.1
09:25 1019 30.09 848 25.04 7 44.7 31 -8.8 16.2
09:30 1019 30.09 848 25.04 7.5 45.5 31 -8.7 16.3
09:35 1019 30.09 848 25.04 7.4 45.2 31 -8.5 16.7
09:40 1019 30.09 848 25.04 7.1 44.8 31 -8.8 16.2
09:45 1019 30.09 848 25.04 7 44.7 31 -8.9 15.9
09:50 1019 30.09 848 25.04 7.3 45.1 31 -8.7 16.3
09:55 1019 30.09 848 25.04 7.7 45.8 30 -8.7 16.3
10:00 1019 30.09 848 25.04 8.6 47.4 28 -9 15.8
10:05 1019 30.09 848 25.04 8.9 48 28 -8.8 16.1
10:10 1018 30.06 848 25.04 9.4 48.8 27 -8.8 16.2
10:15 1018 30.06 848 25.04 9.9 49.7 26 -8.7 16.4
10:20 1018 30.06 848 25.04 9.6 49.3 27 -8.5 16.7
10:25 1018 30.06 848 25.04 10.1 50.1 26 -8.6 16.5
10:30 1018 30.06 848 25.04 9.8 49.7 25 -9.2 15.5
10:35 1018 30.06 848 25.04 9.8 49.6 26 -8.9 16
10:40 1018 30.06 847 25.01 10.2 50.4 28 -7.4 18.8
10:45 1018 30.06 847 25.01 10.1 50.3 32 -5.7 21.7
10:50 1018 30.06 847 25.01 9.9 49.8 33 -5.5 22.1
10:55 1018 30.06 847 25.01 9.3 48.7 36 -5 23
11:00 1018 30.06 847 25.01 8.6 47.5 36 -5.7 21.8
11:05 1018 30.06 847 25.01 8.7 47.6 35 -5.7 21.7
11:10 1018 30.06 847 25.01 8.4 47.1 38 -5.1 22.8
11:15 1018 30.06 847 25.01 8.7 47.6 36 -5.7 21.7
11:20 1018 30.06 847 25.01 8.9 48 35 -5.9 21.3
11:25 1018 30.06 847 25.01 8.7 47.7 35 -5.7 21.7
11:30 1018 30.06 847 25.01 8.8 47.8 37 -5 23.1
11:35 1018 30.06 847 25.01 8.3 46.9 39 -4.9 23.3
11:40 1018 30.06 847 25.01 8.3 46.9 38 -5.1 22.8
11:45 1018 30.06 847 25.01 8.2 46.8 39 -4.8 23.3
11:50 1018 30.06 847 25.01 8.1 46.6 37 -5.7 21.8
11:55 1018 30.06 847 25.01 8 46.4 37 -5.9 21.3
12:00 1018 30.06 847 25.01 8 46.5 39 -4.9 23.1
12:05 1017 30.03 847 25.01 7.6 45.7 41 -4.8 23.4
12:10 1017 30.03 847 25.01 7.9 46.3 39 -5.3 22.5
12:15 1017 30.03 847 25.01 8 46.3 38 -5.6 22
12:20 1017 30.03 846 24.98 8.4 47.1 37 -5.6 22
12:25 1017 30.03 846 24.98 9.2 48.5 35 -5.6 21.9
12:30 1017 30.03 846 24.98 9.3 48.7 33 -6.2 20.8
12:35 1017 30.03 846 24.98 9.2 48.6 33 -6.1 21
12:40 1017 30.03 846 24.98 9.3 48.7 33 -6.2 20.9
12:45 1017 30.03 846 24.98 9.7 49.4 32 -6.3 20.7
12:50 1017 30.03 846 24.98 9.9 49.7 32 -6.1 21
12:55 1017 30.03 846 24.98 10.2 50.4 31 -6.2 20.8
13:00 1017 30.03 846 24.98 10.7 51.3 29 -6.3 20.6
13:05 1017 30.03 846 24.98 11 51.9 29 -6.2 20.8
13:10 1017 30.03 846 24.98 12.3 54.1 27 -6 21.2
13:15 1016 30 846 24.98 12.9 55.2 26 -6 21.1
13:20 1016 30 846 24.98 12.4 54.2 28 -5.7 21.7
13:25 1016 30 846 24.98 12.1 53.7 27 -6.3 20.7
13:30 1016 30 845 24.95 12.1 53.8 28 -5.8 21.6
13:35 1016 30 845 24.95 11.4 52.5 30 -5.4 22.4
13:40 1016 30 845 24.95 12.1 53.7 30 -4.9 23.3
13:45 1016 30 845 24.95 11.8 53.3 32 -4.5 24
13:50 1016 30 845 24.95 12.1 53.8 33 -3.8 25.1
13:55 1016 30 845 24.95 12.6 54.7 31 -4.1 24.6
14:00 1016 30 845 24.95 12.5 54.5 32 -3.7 25.4
14:05 1016 30 845 24.95 12.8 55 30 -4.2 24.5
14:10 1016 30 845 24.95 12.6 54.7 32 -3.6 25.5
14:15 1016 30 845 24.95 13.4 56.1 29 -4.2 24.4
14:20 1016 30 845 24.95 13.6 56.6 30 -3.6 25.5
14:25 1016 30 845 24.95 12.5 54.6 30 -4.3 24.2
14:30 1016 30 845 24.95 12.6 54.7 29 -5 22.9
14:35 1016 30 845 24.95 13 55.3 28 -4.9 23.2
14:40 1016 30 845 24.95 13.3 55.9 26 -5.8 21.5
14:45 1016 30 845 24.95 13.4 56.1 26 -5.8 21.6
14:50 1016 30 845 24.95 14 57.1 28 -4.4 24.1
14:55 1016 30 845 24.95 13.2 55.8 30 -4 24.8
15:00 1016 30 845 24.95 13.2 55.7 27 -5.2 22.6
15:05 1016 30 845 24.95 13.6 56.4 27 -5.2 22.6
15:10 1016 30 845 24.95 13.5 56.3 26 -5.5 22.1
15:15 1016 30 845 24.95 13.7 56.6 23 -7.1 19.2
15:20 1015 29.97 845 24.95 13.2 55.8 23 -7.3 18.8
15:25 1015 29.97 845 24.95 13.5 56.3 23 -7.3 18.9
15:30 1015 29.97 845 24.95 13.1 55.5 22 -7.9 17.9
15:35 1015 29.97 845 24.95 12.8 55.1 25 -6.8 19.8
15:40 1015 29.97 845 24.95 13.2 55.8 21 -8.3 17.1
15:45 1015 29.97 845 24.95 13.9 57 20 -9 15.9
15:50 1015 29.97 845 24.95 13.6 56.6 18 -10.1 13.8
15:55 1015 29.97 845 24.95 14 57.2 20 -8.3 17.1
16:00 1015 29.97 845 24.95 14.1 57.4 19 -8.9 16
16:05 1015 29.97 845 24.95 14 57.1 20 -8.8 16.2
16:10 1015 29.97 845 24.95 13.5 56.3 20 -8.7 16.3
16:15 1015 29.97 845 24.95 13.7 56.7 20 -8.9 15.9
16:20 1015 29.97 845 24.95 13.7 56.6 21 -8.1 17.4
16:25 1015 29.97 845 24.95 13.4 56.2 20 -8.8 16.2
16:30 1015 29.97 844 24.92 13.2 55.8 21 -8.6 16.4
16:35 1015 29.97 844 24.92 13.4 56.1 21 -8.4 16.9
16:40 1015 29.97 844 24.92 13.6 56.5 21 -8 17.6
16:45 1015 29.97 844 24.92 13.4 56.1 22 -7.8 18
16:50 1015 29.97 844 24.92 13 55.3 23 -7.5 18.5
16:55 1015 29.97 844 24.92 12.9 55.3 23 -7.4 18.6
17:00 1015 29.97 844 24.92 13 55.3 24 -7.1 19.1
17:05 1015 29.97 844 24.92 13.1 55.5 24 -7.2 19.1
17:10 1015 29.97 844 24.92 13.3 55.9 23 -7.2 19.1
17:15 1015 29.97 844 24.92 13.2 55.8 26 -5.7 21.8
17:20 1015 29.97 844 24.92 12.5 54.6 26 -6.3 20.7
17:25 1015 29.97 844 24.92 12.4 54.3 28 -5.8 21.6
17:30 1015 29.97 844 24.92 12.5 54.4 27 -5.9 21.3
17:35 1015 29.97 844 24.92 12.1 53.8 28 -5.8 21.5
17:40 1015 29.97 844 24.92 12.4 54.2 27 -5.9 21.3
17:45 1015 29.97 844 24.92 12.2 54 27 -6.3 20.6
17:50 1015 29.97 844 24.92 12.2 54 27 -6.1 21.1
17:55 1015 29.97 844 24.92 12.2 53.9 29 -5.3 22.5
18:00 1015 29.97 844 24.92 11.8 53.2 29 -5.9 21.4
18:05 1015 29.97 844 24.92 11.8 53.2 28 -6.2 20.9
18:10 1015 29.97 844 24.92 11.7 53.1 28 -5.9 21.3
18:15 1015 29.97 844 24.92 11.6 52.9 28 -6.1 21
18:20 1015 29.97 844 24.92 11.6 52.9 30 -5.5 22.1
18:25 1015 29.97 844 24.92 11.4 52.5 30 -5.6 22
18:30 1015 29.97 844 24.92 11.1 52 30 -5.9 21.3
18:35 1015 29.97 844 24.92 10.6 51.1 32 -5.3 22.5
18:40 1015 29.97 844 24.92 10.2 50.4 31 -6.1 21
18:45 1015 29.97 844 24.92 10.3 50.6 32 -5.5 22
18:50 1015 29.97 844 24.92 10.4 50.7 30 -6.5 20.4
18:55 1015 29.97 844 24.92 10.6 51.2 30 -6.4 20.5
19:00 1015 29.97 844 24.92 10.5 51 31 -5.7 21.7
19:05 1015 29.97 844 24.92 10 50 35 -4.7 23.5
19:10 1015 29.97 844 24.92 9.1 48.3 38 -4.5 24
19:15 1015 29.97 844 24.92 8.1 46.6 40 -4.5 23.9
19:20 1015 29.97 844 24.92 7.9 46.1 38 -5.6 21.9
19:25 1015 29.97 844 24.92 8.8 47.8 33 -6.4 20.4
19:30 1015 29.97 844 24.92 8.9 48 37 -5.1 22.8
19:35 1015 29.97 844 24.92 8.3 46.9 35 -6.5 20.4
19:40 1015 29.97 844 24.92 8.5 47.3 36 -5.9 21.4
19:45 1015 29.97 844 24.92 8.2 46.8 38 -5.4 22.4
19:50 1015 29.97 844 24.92 7.8 46 39 -5.4 22.3
19:55 1015 29.97 844 24.92 7.4 45.4 40 -5.4 22.3
20:00 1015 29.97 844 24.92 7.2 44.9 40 -5.6 22
20:05 1015 29.97 844 24.92 7.4 45.2 38 -6.1 21.1
20:10 1015 29.97 844 24.92 7.5 45.5 37 -6.1 21
20:15 1015 29.97 844 24.92 7.5 45.6 38 -5.8 21.5
20:20 1015 29.97 844 24.92 7.3 45.2 38 -6.1 21.1
20:25 1015 29.97 844 24.92 7.5 45.4 36 -6.6 20.2
20:30 1015 29.97 844 24.92 7.4 45.3 38 -6 21.2
20:35 1015 29.97 844 24.92 7.1 44.7 39 -5.8 21.5
20:40 1015 29.97 844 24.92 6.7 44.1 41 -5.6 21.9
20:45 1015 29.97 845 24.95 6.6 43.9 40 -5.9 21.3
20:50 1015 29.97 845 24.95 6.6 44 40 -6.1 21
20:55 1015 29.97 845 24.95 6.9 44.5 38 -6.4 20.4
21:00 1015 29.97 845 24.95 7.2 44.9 38 -6.2 20.8
21:05 1015 29.97 845 24.95 7.2 45 37 -6.3 20.6
21:10 1015 29.97 845 24.95 7.3 45.1 37 -6.6 20.1
21:15 1015 29.97 845 24.95 7.5 45.5 36 -6.6 20.1
21:20 1015 29.97 845 24.95 7.5 45.5 36 -6.5 20.2
21:25 1015 29.97 845 24.95 7.3 45.1 39 -5.8 21.5
21:30 1015 29.97 845 24.95 6.6 43.8 42 -5.6 22
21:35 1015 29.97 845 24.95 6 42.8 43 -5.5 22.1
21:40 1015 29.97 844 24.92 5.9 42.6 42 -6 21.2
21:45 1015 29.97 844 24.92 6.2 43.1 41 -6 21.2
21:50 1015 29.97 844 24.92 6.3 43.4 41 -6 21.2
21:55 1015 29.97 844 24.92 6.3 43.3 40 -6.2 20.9
22:00 1015 29.97 844 24.92 6.2 43.2 42 -5.8 21.6
22:05 1015 29.97 844 24.92 6.1 42.9 42 -5.8 21.6
22:10 1015 29.97 844 24.92 6 42.8 43 -5.7 21.7
22:15 1015 29.97 844 24.92 5.8 42.4 44 -5.6 21.9
22:20 1015 29.97 844 24.92 5.9 42.7 42 -6.1 21
22:25 1015 29.97 844 24.92 6.2 43.1 42 -5.8 21.5
22:30 1015 29.97 844 24.92 6.2 43.1 42 -5.8 21.5
22:35 1015 29.97 844 24.92 6.2 43.1 42 -5.8 21.6
22:40 1015 29.97 844 24.92 6.1 42.9 43 -5.5 22.1
22:45 1015 29.97 844 24.92 5.7 42.3 44 -5.5 22.2
22:50 1015 29.97 844 24.92 5.5 41.9 44 -5.6 21.8
22:55 1015 29.97 844 24.92 5.8 42.5 42 -6.1 20.9
23:00 1015 29.97 844 24.92 6.4 43.6 40 -6.2 20.8
23:05 1015 29.97 844 24.92 6.1 43.1 43 -5.5 22
23:10 1015 29.97 844 24.92 5.7 42.3 44 -5.5 22
23:15 1015 29.97 844 24.92 5.5 41.8 44 -5.8 21.5
23:20 1015 29.97 844 24.92 5.6 42.1 44 -5.7 21.8
23:25 1015 29.97 844 24.92 5.5 41.9 45 -5.5 22.1
23:30 1015 29.97 844 24.92 5.4 41.7 45 -5.6 21.9
23:35 1015 29.97 844 24.92 5.3 41.5 45 -5.7 21.7
23:40 1015 29.97 844 24.92 5.2 41.3 45 -5.7 21.8
23:45 1015 29.97 844 24.92 5.1 41.1 47 -5.5 22.2
23:50 1015 29.97 844 24.92 4.9 40.8 47 -5.5 22
23:55 1015 29.97 844 24.92 4.8 40.6 47 -5.5 22.1
24:00 1015 29.97 844 24.92 4.8 40.7 47 -5.6 21.9